Time;durP1;ratioP1;P1;durP2;ratioP2;P2;SDS_P1;SDS_P2;PMS_P1;PMS_P2;Temp;Humidity;BMP_temperature;BMP_pressure;BME280_temperature;BME280_humidity;BME280_pressure;Samples;Min_cycle;Max_cycle;Signal;HPM_P1;HPM_P2
2021/05/19 00:00:07;;;;;;;18.45;13.23;;;9.60;99.90;;;;;;5069993;28;20040;-53
2021/05/19 00:02:33;;;;;;;22.52;14.50;;;9.60;99.90;;;;;;5074910;28;20118;-55
2021/05/19 00:04:58;;;;;;;21.67;13.32;;;9.60;99.90;;;;;;5076985;28;20095;-54
2021/05/19 00:07:24;;;;;;;21.30;14.23;;;9.60;99.90;;;;;;5077548;28;20668;-51
2021/05/19 00:09:50;;;;;;;20.90;14.23;;;9.60;99.90;;;;;;5079464;28;20627;-55
2021/05/19 00:12:15;;;;;;;22.40;14.57;;;9.60;99.90;;;;;;5076579;28;20036;-52
2021/05/19 00:14:41;;;;;;;18.80;13.60;;;9.60;99.90;;;;;;5083164;28;20031;-52
2021/05/19 00:17:07;;;;;;;21.13;14.65;;;9.60;99.90;;;;;;5080208;28;20032;-54
2021/05/19 00:19:32;;;;;;;21.92;15.30;;;9.60;99.90;;;;;;5084146;28;20028;-52
2021/05/19 00:21:58;;;;;;;22.55;14.80;;;9.60;99.90;;;;;;5077213;28;20099;-57
2021/05/19 00:24:23;;;;;;;23.52;16.00;;;9.60;99.90;;;;;;5080135;28;20482;-52
2021/05/19 00:26:49;;;;;;;23.20;15.80;;;9.60;99.90;;;;;;5071232;28;20068;-55
2021/05/19 00:29:15;;;;;;;21.45;15.38;;;9.70;99.90;;;;;;5081730;28;20092;-52
2021/05/19 00:31:42;;;;;;;24.23;15.95;;;9.70;99.90;;;;;;5076660;28;20081;-53
2021/05/19 00:34:11;;;;;;;25.45;16.33;;;9.70;99.90;;;;;;5081669;28;20215;-54
2021/05/19 00:36:38;;;;;;;24.45;15.93;;;9.70;99.90;;;;;;5070467;28;20028;-51
2021/05/19 00:39:09;;;;;;;33.97;17.15;;;9.70;99.90;;;;;;5078699;28;20024;-52
2021/05/19 00:41:35;;;;;;;33.42;16.40;;;9.70;99.90;;;;;;5075383;28;20028;-53
2021/05/19 00:44:04;;;;;;;29.08;16.88;;;9.60;99.90;;;;;;5081064;28;20495;-55
2021/05/19 00:46:30;;;;;;;35.33;17.48;;;9.70;99.90;;;;;;5075699;28;20032;-52
2021/05/19 00:48:56;;;;;;;29.17;16.23;;;9.70;99.90;;;;;;5077137;28;20037;-51
2021/05/19 00:51:21;;;;;;;33.13;17.80;;;9.70;99.90;;;;;;5083326;28;20090;-52
2021/05/19 00:53:47;;;;;;;30.95;17.30;;;9.70;99.90;;;;;;5084422;28;20024;-54
2021/05/19 00:56:12;;;;;;;24.35;15.43;;;9.70;99.90;;;;;;5076275;28;20035;-52
2021/05/19 00:58:38;;;;;;;32.40;15.75;;;9.70;99.90;;;;;;5080083;28;20119;-53
2021/05/19 01:01:04;;;;;;;24.48;14.25;;;9.70;99.90;;;;;;5080972;28;20036;-54
2021/05/19 01:03:29;;;;;;;23.45;14.25;;;9.70;99.90;;;;;;5082098;28;20097;-52
2021/05/19 01:06:01;;;;;;;21.45;13.57;;;9.80;99.90;;;;;;5081523;28;20083;-52
2021/05/19 01:11:13;;;;;;;23.25;14.13;;;9.80;99.90;;;;;;5077474;28;20068;-52
2021/05/19 01:13:44;;;;;;;23.25;14.02;;;9.80;99.90;;;;;;5070617;28;20037;-51
2021/05/19 01:16:10;;;;;;;23.77;13.50;;;9.80;99.90;;;;;;5073323;28;20580;-54
2021/05/19 01:18:37;;;;;;;24.30;13.30;;;9.80;99.90;;;;;;5072515;28;20036;-55
2021/05/19 01:21:03;;;;;;;23.73;14.90;;;9.80;99.90;;;;;;5070926;28;20033;-52
2021/05/19 01:23:30;;;;;;;18.42;12.60;;;9.80;99.90;;;;;;5071840;28;20177;-53
2021/05/19 01:25:57;;;;;;;24.95;13.95;;;9.80;99.90;;;;;;5079228;28;20127;-54
2021/05/19 01:28:22;;;;;;;20.17;14.02;;;9.80;99.90;;;;;;5086224;28;20037;-55
2021/05/19 01:30:48;;;;;;;21.02;14.05;;;9.80;99.90;;;;;;5081168;28;20024;-54
2021/05/19 01:33:14;;;;;;;22.67;14.02;;;9.70;99.90;;;;;;5083336;28;20115;-54
2021/05/19 01:35:40;;;;;;;21.20;14.25;;;9.70;99.90;;;;;;5082761;28;20056;-53
2021/05/19 01:38:08;;;;;;;25.38;14.75;;;9.70;99.90;;;;;;5084015;28;20582;-56
2021/05/19 01:40:35;;;;;;;21.42;15.52;;;9.70;99.90;;;;;;5085206;28;20115;-52
2021/05/19 01:43:02;;;;;;;32.05;16.83;;;9.80;99.90;;;;;;5077831;28;20432;-53
2021/05/19 01:45:28;;;;;;;25.67;15.70;;;9.70;99.90;;;;;;5085932;28;20505;-55
2021/05/19 01:47:54;;;;;;;27.05;17.48;;;9.70;99.90;;;;;;5084049;28;20032;-56
2021/05/19 01:50:24;;;;;;;33.05;20.05;;;9.70;99.90;;;;;;5081971;28;20113;-54
2021/05/19 01:52:53;;;;;;;28.65;19.77;;;9.60;99.90;;;;;;5082653;28;20020;-55
2021/05/19 01:55:20;;;;;;;30.45;20.05;;;9.60;99.90;;;;;;5086872;28;20020;-53
2021/05/19 01:57:48;;;;;;;29.05;19.75;;;9.60;99.90;;;;;;5076783;28;20061;-54
2021/05/19 02:00:17;;;;;;;32.97;20.27;;;9.60;99.90;;;;;;5085475;28;20035;-52
2021/05/19 02:02:43;;;;;;;33.13;19.90;;;9.60;99.90;;;;;;5078380;28;20175;-51
2021/05/19 02:05:13;;;;;;;29.17;19.10;;;9.60;99.90;;;;;;5085656;28;20718;-51
2021/05/19 02:07:39;;;;;;;32.20;19.67;;;9.70;99.90;;;;;;5076410;28;20036;-54
2021/05/19 02:10:10;;;;;;;30.27;19.23;;;9.70;99.90;;;;;;5085302;28;20070;-54
2021/05/19 02:12:35;;;;;;;28.15;19.52;;;9.70;99.90;;;;;;5089603;28;20130;-54
2021/05/19 02:15:01;;;;;;;32.20;21.02;;;9.80;99.90;;;;;;5079723;28;20107;-55
2021/05/19 02:17:27;;;;;;;31.75;22.30;;;9.80;99.90;;;;;;5075926;28;20098;-54
2021/05/19 02:19:54;;;;;;;29.20;19.58;;;9.90;99.90;;;;;;5073498;28;20087;-52
2021/05/19 02:22:20;;;;;;;34.08;20.50;;;10.00;99.90;;;;;;5075676;28;20028;-54
2021/05/19 02:24:45;;;;;;;31.25;19.77;;;10.00;99.90;;;;;;5081582;28;20024;-54
2021/05/19 02:27:11;;;;;;;28.67;20.55;;;10.00;99.90;;;;;;5075505;28;20093;-52
2021/05/19 02:29:37;;;;;;;34.65;22.50;;;9.90;99.90;;;;;;5081063;28;20035;-52
2021/05/19 02:32:03;;;;;;;38.35;24.67;;;9.90;99.90;;;;;;5073778;28;20095;-53
2021/05/19 02:34:28;;;;;;;39.40;27.00;;;9.80;99.90;;;;;;5077845;28;20028;-52
2021/05/19 02:36:54;;;;;;;41.30;26.10;;;9.80;99.90;;;;;;5081306;28;20031;-53
2021/05/19 02:39:19;;;;;;;39.55;25.35;;;9.80;99.90;;;;;;5084521;28;20035;-53
2021/05/19 02:41:45;;;;;;;37.90;26.23;;;9.80;99.90;;;;;;5081108;28;20037;-53
2021/05/19 02:44:11;;;;;;;37.90;25.00;;;9.70;99.90;;;;;;5075029;28;20032;-54
2021/05/19 02:46:36;;;;;;;38.00;26.20;;;9.70;99.90;;;;;;5080267;28;20394;-51
2021/05/19 02:49:03;;;;;;;40.65;27.40;;;9.80;99.90;;;;;;5074449;28;20063;-52
2021/05/19 02:51:34;;;;;;;39.97;26.90;;;9.70;99.90;;;;;;5081411;28;20508;-53
2021/05/19 02:54:00;;;;;;;42.35;29.58;;;9.60;99.90;;;;;;5081659;28;20090;-54
2021/05/19 02:56:26;;;;;;;50.70;29.98;;;9.60;99.90;;;;;;5086959;28;20073;-54
2021/05/19 02:58:53;;;;;;;43.28;28.75;;;9.60;99.90;;;;;;5077809;28;20043;-54
2021/05/19 03:01:19;;;;;;;46.83;30.27;;;9.60;99.90;;;;;;5080871;28;20028;-54
2021/05/19 03:03:45;;;;;;;49.42;30.45;;;9.70;99.90;;;;;;5079131;28;20042;-51
2021/05/19 03:06:11;;;;;;;50.55;31.35;;;9.70;99.90;;;;;;5076683;28;20036;-52
2021/05/19 03:08:37;;;;;;;45.47;28.05;;;9.70;99.90;;;;;;5079596;28;20044;-52
2021/05/19 03:11:04;;;;;;;44.47;29.17;;;9.70;99.90;;;;;;5079038;28;20437;-52
2021/05/19 03:13:30;;;;;;;42.05;29.98;;;9.70;99.90;;;;;;5076190;28;20035;-53
2021/05/19 03:15:56;;;;;;;41.90;27.48;;;9.70;99.90;;;;;;5081187;28;20028;-55
2021/05/19 03:18:21;;;;;;;35.28;24.50;;;9.80;99.90;;;;;;5083928;28;20036;-51
2021/05/19 03:20:47;;;;;;;39.90;26.35;;;9.80;99.90;;;;;;5072235;28;20506;-52
2021/05/19 03:23:13;;;;;;;42.53;26.58;;;9.80;99.90;;;;;;5081765;28;20024;-52
2021/05/19 03:25:39;;;;;;;38.38;25.48;;;9.80;99.90;;;;;;5083492;28;20524;-51
2021/05/19 03:28:04;;;;;;;37.72;26.15;;;9.80;99.90;;;;;;5070719;28;20047;-53
2021/05/19 03:30:30;;;;;;;36.65;25.70;;;9.80;99.90;;;;;;5081088;28;20100;-51
2021/05/19 03:32:56;;;;;;;37.58;26.70;;;9.80;99.90;;;;;;5079009;28;20027;-54
2021/05/19 03:35:22;;;;;;;35.03;26.13;;;9.80;99.90;;;;;;5073430;28;20060;-52
2021/05/19 03:37:47;;;;;;;40.22;27.00;;;9.80;99.90;;;;;;5070130;28;20369;-52
2021/05/19 03:40:14;;;;;;;43.05;28.65;;;9.80;99.90;;;;;;5085712;28;20030;-52
2021/05/19 03:42:41;;;;;;;43.10;27.45;;;9.70;99.90;;;;;;5071417;28;20048;-53
2021/05/19 03:45:09;;;;;;;36.03;24.63;;;9.70;99.90;;;;;;5082154;28;20098;-55
2021/05/19 03:47:34;;;;;;;36.58;23.83;;;9.80;99.90;;;;;;5080717;28;20115;-55
2021/05/19 03:50:01;;;;;;;32.47;23.25;;;9.80;99.90;;;;;;5071646;28;20123;-52
2021/05/19 03:52:29;;;;;;;34.83;24.42;;;9.80;99.90;;;;;;5082213;28;20078;-53
2021/05/19 03:54:55;;;;;;;25.27;19.55;;;9.80;99.90;;;;;;5078714;28;20032;-55
2021/05/19 03:57:20;;;;;;;27.08;19.65;;;9.80;99.90;;;;;;5072996;28;20618;-53
2021/05/19 03:59:46;;;;;;;27.85;20.70;;;9.80;99.90;;;;;;5078399;28;20485;-55
2021/05/19 04:02:11;;;;;;;27.38;20.27;;;9.90;99.90;;;;;;5072979;28;20087;-55
2021/05/19 04:04:38;;;;;;;30.17;20.98;;;9.90;99.90;;;;;;5084783;28;20107;-53
2021/05/19 04:07:03;;;;;;;28.65;20.33;;;10.00;99.90;;;;;;5080154;28;20090;-52
2021/05/19 04:09:29;;;;;;;24.08;17.17;;;10.00;99.90;;;;;;5074296;28;20031;-53
2021/05/19 04:11:54;;;;;;;19.23;14.80;;;9.90;99.90;;;;;;5078021;28;20040;-54
2021/05/19 04:14:20;;;;;;;24.33;17.63;;;10.00;99.90;;;;;;5080878;28;20397;-54
2021/05/19 04:16:45;;;;;;;19.90;15.60;;;10.00;99.90;;;;;;5068580;28;20028;-53
2021/05/19 04:19:12;;;;;;;26.50;18.67;;;10.00;99.90;;;;;;5069771;28;20502;-57
2021/05/19 04:21:37;;;;;;;24.70;16.25;;;10.00;99.90;;;;;;5079646;28;20032;-54
2021/05/19 04:24:03;;;;;;;24.67;15.85;;;10.00;99.90;;;;;;5078929;28;20440;-56
2021/05/19 04:26:29;;;;;;;30.52;21.73;;;10.00;99.90;;;;;;5088478;28;20039;-55
2021/05/19 04:28:54;;;;;;;22.33;17.08;;;9.90;99.90;;;;;;5079048;28;20577;-55
2021/05/19 04:31:20;;;;;;;24.75;16.25;;;9.90;99.90;;;;;;5075303;28;20028;-52
2021/05/19 04:33:46;;;;;;;21.05;15.02;;;9.80;99.90;;;;;;5081163;28;20050;-54
2021/05/19 04:36:12;;;;;;;23.88;17.92;;;9.80;99.90;;;;;;5075709;28;20036;-53
2021/05/19 04:38:37;;;;;;;19.98;14.82;;;9.80;99.90;;;;;;5080714;28;20542;-53
2021/05/19 04:41:04;;;;;;;23.08;15.90;;;9.80;99.90;;;;;;5083136;28;20497;-53
2021/05/19 04:43:29;;;;;;;25.73;14.40;;;9.80;99.90;;;;;;5077189;28;20032;-53
2021/05/19 04:45:55;;;;;;;22.33;14.38;;;9.80;99.90;;;;;;5078102;28;20033;-52
2021/05/19 04:48:20;;;;;;;17.80;12.85;;;9.80;99.90;;;;;;5074095;28;20032;-54
2021/05/19 04:50:46;;;;;;;17.45;12.27;;;9.90;99.90;;;;;;5078009;28;20032;-52
2021/05/19 04:53:12;;;;;;;20.35;11.75;;;9.90;99.90;;;;;;5080657;28;20420;-52
2021/05/19 04:55:38;;;;;;;20.42;12.45;;;9.90;99.90;;;;;;5070546;28;20043;-52
2021/05/19 04:58:05;;;;;;;14.65;11.07;;;10.00;99.90;;;;;;5081385;28;20020;-52
2021/05/19 05:00:32;;;;;;;21.33;13.20;;;10.00;99.90;;;;;;5081699;28;20109;-52
2021/05/19 05:02:58;;;;;;;17.05;11.27;;;10.10;99.90;;;;;;5077560;28;20173;-52
2021/05/19 05:05:24;;;;;;;15.75;12.55;;;10.10;99.90;;;;;;5078637;28;20505;-52
2021/05/19 05:07:50;;;;;;;16.80;11.65;;;10.10;99.90;;;;;;5078274;28;20032;-52
2021/05/19 05:10:15;;;;;;;17.63;10.65;;;10.10;99.90;;;;;;5082493;28;20402;-52
2021/05/19 05:12:41;;;;;;;13.13;9.10;;;10.10;99.90;;;;;;5073525;28;20533;-51
2021/05/19 05:15:11;;;;;;;13.80;10.68;;;10.20;99.90;;;;;;5068618;28;20024;-52
2021/05/19 05:17:37;;;;;;;15.13;10.93;;;10.30;99.90;;;;;;5077837;28;20568;-53
2021/05/19 05:20:08;;;;;;;15.15;9.60;;;10.30;99.90;;;;;;5085136;28;20134;-52
2021/05/19 05:22:33;;;;;;;16.77;10.45;;;10.30;99.90;;;;;;5076007;28;20498;-51
2021/05/19 05:24:59;;;;;;;19.40;10.43;;;10.40;99.90;;;;;;5075581;28;20043;-52
2021/05/19 05:27:25;;;;;;;17.13;9.20;;;10.40;99.90;;;;;;5076875;28;20031;-54
2021/05/19 05:29:51;;;;;;;13.43;8.98;;;10.40;99.90;;;;;;5083305;28;20403;-55
2021/05/19 05:32:16;;;;;;;14.40;9.02;;;10.40;99.90;;;;;;5074422;28;20028;-56
2021/05/19 05:34:42;;;;;;;14.32;8.68;;;10.50;99.90;;;;;;5074307;28;20094;-54
2021/05/19 05:37:07;;;;;;;13.40;8.45;;;10.40;99.90;;;;;;5072248;28;20048;-54
2021/05/19 05:39:33;;;;;;;12.98;8.50;;;10.40;99.90;;;;;;5085949;28;20118;-54
2021/05/19 05:41:58;;;;;;;19.50;8.57;;;10.40;99.90;;;;;;5077636;28;20029;-54
2021/05/19 05:44:24;;;;;;;17.42;9.52;;;10.50;99.90;;;;;;5077829;28;20029;-55
2021/05/19 05:46:49;;;;;;;14.45;8.82;;;10.50;99.90;;;;;;5076158;28;20039;-51
2021/05/19 05:49:15;;;;;;;17.23;8.68;;;10.50;99.90;;;;;;5083371;28;20025;-52
2021/05/19 05:51:41;;;;;;;14.15;7.95;;;10.60;99.90;;;;;;5077329;28;20394;-54
2021/05/19 05:54:07;;;;;;;24.23;8.43;;;10.60;99.90;;;;;;5084742;28;20033;-51
2021/05/19 05:56:33;;;;;;;20.45;9.48;;;10.70;99.90;;;;;;5071350;28;20087;-51
2021/05/19 05:58:58;;;;;;;17.85;7.15;;;10.70;99.90;;;;;;5083716;28;20032;-54
2021/05/19 06:01:24;;;;;;;16.38;9.07;;;10.80;99.90;;;;;;5077317;28;20028;-52
2021/05/19 06:03:50;;;;;;;18.23;8.82;;;10.90;99.90;;;;;;5082286;28;20040;-51
2021/05/19 06:06:15;;;;;;;16.52;7.82;;;11.00;99.90;;;;;;5054771;28;20029;-55
2021/05/19 06:08:41;;;;;;;14.10;7.47;;;11.00;99.90;;;;;;5077018;28;20042;-56
2021/05/19 06:11:07;;;;;;;16.33;6.57;;;11.10;99.90;;;;;;5082915;28;20480;-55
2021/05/19 06:13:34;;;;;;;19.00;8.70;;;11.10;99.90;;;;;;5084849;28;20020;-54
2021/05/19 06:15:59;;;;;;;14.45;8.10;;;11.10;99.90;;;;;;5074700;28;20048;-55
2021/05/19 06:18:25;;;;;;;16.58;6.80;;;11.10;99.90;;;;;;5078170;28;20097;-54
2021/05/19 06:20:51;;;;;;;21.30;7.07;;;11.10;99.90;;;;;;5085656;28;20040;-53
2021/05/19 06:23:16;;;;;;;17.48;6.93;;;11.10;99.90;;;;;;5081092;28;20039;-55
2021/05/19 06:25:42;;;;;;;18.40;6.40;;;11.10;99.90;;;;;;5083086;28;20040;-55
2021/05/19 06:28:08;;;;;;;12.70;5.90;;;11.20;99.90;;;;;;5085178;28;20440;-51
2021/05/19 06:30:34;;;;;;;13.02;5.88;;;11.30;99.90;;;;;;5084296;28;20016;-56
2021/05/19 06:32:59;;;;;;;16.05;5.28;;;11.40;99.90;;;;;;5084921;28;20347;-55
2021/05/19 06:35:25;;;;;;;14.48;4.95;;;11.50;99.90;;;;;;5081823;28;20502;-55
2021/05/19 06:37:51;;;;;;;14.18;4.47;;;11.60;99.90;;;;;;5077620;28;20050;-55
2021/05/19 06:40:16;;;;;;;13.02;3.60;;;11.60;99.90;;;;;;5083267;28;20123;-56
2021/05/19 06:42:42;;;;;;;17.20;5.22;;;11.70;99.90;;;;;;5084980;28;20040;-56
2021/05/19 06:45:08;;;;;;;18.40;5.38;;;11.70;99.90;;;;;;5080162;28;20111;-55
2021/05/19 06:47:33;;;;;;;12.25;4.10;;;11.80;99.90;;;;;;5078117;28;20044;-55
2021/05/19 06:49:59;;;;;;;8.45;3.78;;;11.80;99.90;;;;;;5079606;28;20394;-55
2021/05/19 06:52:25;;;;;;;11.00;3.92;;;11.80;99.90;;;;;;5080517;28;20483;-55
2021/05/19 06:54:50;;;;;;;17.73;3.67;;;11.80;99.90;;;;;;5077840;28;20046;-54
2021/05/19 06:57:16;;;;;;;14.93;4.85;;;12.00;99.90;;;;;;5079290;28;20073;-52
2021/05/19 06:59:42;;;;;;;14.88;5.65;;;12.00;99.90;;;;;;5083232;28;20040;-54
2021/05/19 07:02:07;;;;;;;14.68;6.03;;;12.00;99.90;;;;;;5083901;28;20459;-53
2021/05/19 07:04:33;;;;;;;16.63;4.78;;;12.00;99.90;;;;;;5084566;28;20028;-54
2021/05/19 07:06:58;;;;;;;12.50;4.13;;;12.00;99.90;;;;;;5082694;28;20036;-56
2021/05/19 07:09:25;;;;;;;9.80;4.18;;;12.00;99.90;;;;;;5085318;28;20561;-53
2021/05/19 07:11:52;;;;;;;12.60;4.05;;;12.00;99.90;;;;;;5080467;28;20035;-53
2021/05/19 07:14:18;;;;;;;11.57;4.15;;;12.00;99.90;;;;;;5085289;28;20024;-54
2021/05/19 07:16:51;;;;;;;12.00;4.30;;;12.00;99.90;;;;;;5083629;28;20035;-56
2021/05/19 07:19:17;;;;;;;14.82;4.00;;;12.10;99.90;;;;;;5074598;28;20081;-55
2021/05/19 07:21:43;;;;;;;21.60;5.32;;;12.10;99.90;;;;;;5079965;28;20513;-54
2021/05/19 07:24:11;;;;;;;12.52;4.63;;;12.20;99.90;;;;;;5077852;28;20048;-52
2021/05/19 07:26:38;;;;;;;15.43;4.13;;;12.30;99.90;;;;;;5079735;28;20585;-55
2021/05/19 07:29:03;;;;;;;9.93;4.68;;;12.30;99.90;;;;;;5081739;28;20031;-52
2021/05/19 07:31:29;;;;;;;13.57;4.82;;;12.40;99.90;;;;;;5088464;28;20021;-55
2021/05/19 07:33:55;;;;;;;13.30;4.30;;;12.50;99.90;;;;;;5081851;28;20051;-55
2021/05/19 07:36:20;;;;;;;17.10;3.80;;;12.60;99.90;;;;;;5082734;28;20267;-55
2021/05/19 07:38:46;;;;;;;11.43;3.60;;;12.70;99.90;;;;;;5079661;28;20036;-53
2021/05/19 07:41:11;;;;;;;9.73;3.67;;;12.80;99.90;;;;;;5083342;28;20046;-56
2021/05/19 07:43:37;;;;;;;14.27;3.72;;;12.90;99.90;;;;;;5079945;28;20044;-53
2021/05/19 07:46:03;;;;;;;12.63;3.15;;;13.10;99.90;;;;;;5081036;28;20125;-53
2021/05/19 07:48:29;;;;;;;10.15;3.05;;;13.20;99.90;;;;;;5080855;28;20123;-54
2021/05/19 07:50:54;;;;;;;8.10;2.58;;;13.20;99.90;;;;;;5073495;28;20021;-53
2021/05/19 07:53:20;;;;;;;9.95;2.33;;;13.20;99.90;;;;;;5083113;28;20416;-56
2021/05/19 07:58:42;;;;;;;10.88;2.25;;;13.60;99.90;;;;;;5080589;28;20039;-55
2021/05/19 08:03:51;;;;;;;10.82;1.70;;;13.70;99.90;;;;;;5083115;28;20060;-56
2021/05/19 08:06:18;;;;;;;6.13;1.35;;;13.70;99.90;;;;;;5083562;28;20071;-56
2021/05/19 08:08:44;;;;;;;14.20;1.60;;;13.80;99.90;;;;;;5075928;28;20036;-54
2021/05/19 08:11:10;;;;;;;3.95;1.42;;;13.80;99.90;;;;;;5068426;28;20032;-55
2021/05/19 08:13:39;;;;;;;6.43;1.58;;;13.70;99.90;;;;;;5076573;28;20034;-55
2021/05/19 08:16:08;;;;;;;8.85;1.83;;;13.60;99.90;;;;;;5082503;28;20055;-51
2021/05/19 08:18:35;;;;;;;10.18;1.42;;;13.60;99.90;;;;;;5081609;28;20566;-52
2021/05/19 08:21:00;;;;;;;12.15;1.70;;;13.60;99.90;;;;;;5084237;28;20119;-54
2021/05/19 08:23:26;;;;;;;5.18;1.42;;;13.50;99.90;;;;;;5077868;28;20124;-53
2021/05/19 08:25:52;;;;;;;13.02;1.70;;;13.50;99.90;;;;;;5084017;28;20089;-55
2021/05/19 08:28:18;;;;;;;8.77;1.60;;;13.60;99.90;;;;;;5073224;28;20094;-56
2021/05/19 08:30:43;;;;;;;13.85;1.70;;;13.60;99.90;;;;;;5079850;28;20515;-53
2021/05/19 08:33:09;;;;;;;8.38;1.73;;;13.70;99.90;;;;;;5072978;28;20113;-51
2021/05/19 08:35:34;;;;;;;6.25;0.90;;;13.80;99.90;;;;;;5077999;28;20103;-55
2021/05/19 08:38:00;;;;;;;10.75;1.00;;;14.00;99.90;;;;;;5079207;28;20108;-50
2021/05/19 08:40:27;;;;;;;3.03;0.70;;;14.20;99.90;;;;;;5052654;28;20036;-51
2021/05/19 08:42:58;;;;;;;6.85;0.98;;;14.30;99.90;;;;;;5080414;28;20128;-52
2021/05/19 08:45:24;;;;;;;29.33;2.63;;;14.30;99.90;;;;;;5064674;28;20036;-53
2021/05/19 08:48:00;;;;;;;10.23;1.42;;;14.30;99.90;;;;;;5082123;28;20028;-52
2021/05/19 08:50:26;;;;;;;28.38;2.17;;;14.30;99.90;;;;;;5085990;28;20038;-52
2021/05/19 08:52:52;;;;;;;8.18;0.95;;;14.40;99.90;;;;;;5082859;28;20040;-53
2021/05/19 08:55:19;;;;;;;4.93;1.52;;;14.40;99.90;;;;;;5080442;28;20069;-55
2021/05/19 08:57:48;;;;;;;5.78;1.17;;;14.40;99.90;;;;;;5085041;28;20027;-53
2021/05/19 09:00:14;;;;;;;8.18;1.35;;;14.30;99.90;;;;;;5082352;28;20024;-53
2021/05/19 09:02:40;;;;;;;5.10;1.05;;;14.20;99.90;;;;;;5083068;28;20032;-51
2021/05/19 09:05:07;;;;;;;7.43;1.42;;;14.10;99.90;;;;;;5082827;28;20031;-54
2021/05/19 09:07:35;;;;;;;11.38;1.67;;;14.00;99.90;;;;;;5076671;28;20097;-52
2021/05/19 09:10:19;;;;;;;11.95;1.55;;;14.00;99.90;;;;;;5086192;28;20070;-56
2021/05/19 09:12:45;;;;;;;8.15;1.42;;;14.00;99.90;;;;;;5080045;28;20029;-54
2021/05/19 09:15:13;;;;;;;4.85;1.42;;;14.20;99.90;;;;;;5086197;28;20066;-55
2021/05/19 09:17:40;;;;;;;11.35;1.58;;;14.40;99.90;;;;;;5086108;28;20040;-54
2021/05/19 09:20:13;;;;;;;14.38;2.50;;;14.60;99.90;;;;;;5078189;28;20028;-55
2021/05/19 09:22:40;;;;;;;7.80;1.20;;;14.70;99.90;;;;;;5088650;28;20035;-52
2021/05/19 09:25:22;;;;;;;6.13;0.98;;;14.80;99.90;;;;;;5079822;28;20476;-52
2021/05/19 09:27:49;;;;;;;7.15;1.33;;;14.90;99.90;;;;;;5085634;28;20060;-54
2021/05/19 09:30:32;;;;;;;7.38;1.17;;;15.00;99.90;;;;;;5082692;28;20117;-53
2021/05/19 09:33:16;;;;;;;5.85;1.30;;;15.00;99.90;;;;;;5083196;28;20086;-55
2021/05/19 09:35:43;;;;;;;5.93;0.98;;;15.10;99.90;;;;;;5074727;28;20028;-55
2021/05/19 09:38:31;;;;;;;7.15;0.90;;;15.30;99.90;;;;;;5079278;28;20039;-54
2021/05/19 09:41:20;;;;;;;10.40;1.23;;;15.50;99.90;;;;;;5085537;28;20024;-52
2021/05/19 09:43:47;;;;;;;3.13;0.88;;;15.70;99.90;;;;;;5080504;28;20085;-54
2021/05/19 09:46:20;;;;;;;8.55;2.40;;;15.80;99.90;;;;;;5085518;28;20032;-54
2021/05/19 09:48:46;;;;;;;7.18;1.20;;;15.70;99.90;;;;;;5078717;28;20084;-50
2021/05/19 09:51:25;;;;;;;3.65;1.05;;;15.60;99.90;;;;;;5081238;28;20028;-51
2021/05/19 09:53:51;;;;;;;4.43;1.10;;;15.90;99.90;;;;;;5081758;28;20095;-55
2021/05/19 09:56:16;;;;;;;3.70;0.90;;;16.00;99.90;;;;;;5083253;28;20474;-51
2021/05/19 09:58:43;;;;;;;2.75;1.35;;;16.00;99.90;;;;;;5083189;28;20038;-53
2021/05/19 10:01:09;;;;;;;7.65;1.00;;;15.70;99.90;;;;;;5083380;28;20032;-52
2021/05/19 10:03:36;;;;;;;9.00;1.35;;;15.80;99.90;;;;;;5082884;28;20426;-51
2021/05/19 10:06:14;;;;;;;8.65;1.25;;;16.40;99.90;;;;;;5087880;28;20568;-54
2021/05/19 10:08:40;;;;;;;4.35;1.10;;;16.90;99.90;;;;;;5084353;28;20040;-53
2021/05/19 10:11:05;;;;;;;7.03;1.20;;;17.40;99.90;;;;;;5079259;28;20020;-53
2021/05/19 10:13:33;;;;;;;5.22;0.65;;;17.50;99.90;;;;;;5049396;28;20028;-53
2021/05/19 10:16:04;;;;;;;6.05;1.05;;;17.20;99.90;;;;;;5079319;28;20409;-54
2021/05/19 10:18:33;;;;;;;4.57;0.95;;;17.40;99.90;;;;;;5078227;28;20051;-51
2021/05/19 10:21:00;;;;;;;5.55;1.00;;;17.80;99.90;;;;;;5076923;28;20036;-53
2021/05/19 10:23:32;;;;;;;8.07;0.95;;;18.30;99.90;;;;;;5080488;28;20047;-52
2021/05/19 10:26:08;;;;;;;4.30;1.08;;;18.40;99.90;;;;;;5082036;28;20414;-53
2021/05/19 10:28:43;;;;;;;4.75;2.05;;;17.80;99.90;;;;;;5084910;28;20035;-53
2021/05/19 10:31:32;;;;;;;4.65;0.75;;;17.30;99.90;;;;;;5081958;28;20050;-54
2021/05/19 10:34:00;;;;;;;5.22;0.90;;;16.60;99.90;;;;;;5067643;28;20108;-53
2021/05/19 10:36:30;;;;;;;10.05;1.08;;;16.70;99.90;;;;;;5078612;28;20025;-52
2021/05/19 10:39:10;;;;;;;7.20;1.05;;;16.90;99.90;;;;;;5072913;28;20024;-52
2021/05/19 10:41:45;;;;;;;3.28;0.70;;;16.80;99.90;;;;;;5082565;28;20517;-55
2021/05/19 10:44:12;;;;;;;3.55;0.98;;;16.70;99.90;;;;;;5086844;28;20028;-52
2021/05/19 10:47:05;;;;;;;9.38;1.60;;;16.80;99.90;;;;;;5077557;28;20382;-51
2021/05/19 10:49:52;;;;;;;4.65;1.25;;;17.00;99.90;;;;;;5082192;28;20123;-56
2021/05/19 10:57:42;;;;;;;5.60;1.83;;;16.20;99.90;;;;;;5075934;28;20569;-53
2021/05/19 11:00:16;;;;;;;14.95;1.67;;;16.20;99.90;;;;;;5082324;28;20036;-51
2021/05/19 11:02:54;;;;;;;11.38;1.65;;;16.20;99.90;;;;;;5080102;28;20537;-53
2021/05/19 11:05:22;;;;;;;8.18;1.45;;;16.10;99.90;;;;;;5079185;28;20043;-51
2021/05/19 11:08:08;;;;;;;7.68;1.60;;;16.00;99.90;;;;;;5076423;28;20634;-53
2021/05/19 11:10:47;;;;;;;13.23;2.05;;;16.10;99.90;;;;;;5084612;28;20032;-53
2021/05/19 11:13:18;;;;;;;12.10;2.10;;;16.10;99.90;;;;;;5083749;28;20107;-52
2021/05/19 11:15:55;;;;;;;9.60;1.20;;;16.30;99.90;;;;;;5075321;28;20020;-54
2021/05/19 11:21:13;;;;;;;6.03;0.70;;;16.40;99.90;;;;;;5075003;28;20031;-55
2021/05/19 11:23:39;;;;;;;3.53;0.90;;;16.50;99.90;;;;;;5084304;28;20429;-51
2021/05/19 11:26:15;;;;;;;10.52;1.20;;;16.20;99.90;;;;;;5076748;28;20040;-52
2021/05/19 11:28:42;;;;;;;6.63;1.00;;;16.00;99.90;;;;;;5081003;28;20089;-53
2021/05/19 11:31:16;;;;;;;5.60;0.88;;;15.90;99.90;;;;;;5082067;28;20452;-54
2021/05/19 11:34:00;;;;;;;25.40;2.13;;;16.00;99.90;;;;;;5080542;28;20111;-53
2021/05/19 11:36:30;;;;;;;20.75;1.90;;;16.00;99.90;;;;;;5083049;28;20526;-54
2021/05/19 11:38:56;;;;;;;5.68;1.00;;;16.50;99.90;;;;;;5079894;28;20153;-51
2021/05/19 11:41:22;;;;;;;7.60;1.30;;;16.20;99.90;;;;;;5079336;28;20047;-54
2021/05/19 11:43:48;;;;;;;8.70;1.45;;;16.80;99.90;;;;;;5082602;28;20073;-51
2021/05/19 11:46:14;;;;;;;3.58;0.80;;;17.20;99.90;;;;;;5080545;28;20032;-51
2021/05/19 11:48:39;;;;;;;21.25;2.58;;;17.90;99.90;;;;;;5083444;28;20448;-51
2021/05/19 11:51:16;;;;;;;2.17;0.60;;;18.30;99.90;;;;;;5085588;28;20035;-52
2021/05/19 11:54:03;;;;;;;7.93;0.90;;;18.40;99.90;;;;;;5076085;28;20020;-52
2021/05/19 11:56:43;;;;;;;5.55;0.90;;;18.40;99.90;;;;;;5072683;28;20422;-53
2021/05/19 11:59:29;;;;;;;2.25;1.23;;;18.00;99.90;;;;;;5085719;28;20043;-52
2021/05/19 12:01:58;;;;;;;4.63;0.85;;;18.10;99.90;;;;;;5063080;28;20044;-53
2021/05/19 12:04:24;;;;;;;4.03;0.63;;;18.30;99.90;;;;;;5081301;28;20023;-52
2021/05/19 12:06:50;;;;;;;65.40;5.18;;;18.90;99.90;;;;;;5086161;28;20024;-55
2021/05/19 12:09:22;;;;;;;4.13;0.73;;;19.40;99.90;;;;;;5080081;28;20074;-52
2021/05/19 12:11:49;;;;;;;30.10;2.50;;;19.60;99.90;;;;;;5084002;28;20117;-52
2021/05/19 12:14:16;;;;;;;0.85;0.47;;;19.70;99.90;;;;;;5079213;28;20016;-54
2021/05/19 12:16:46;;;;;;;4.10;0.50;;;19.60;99.90;;;;;;5080876;28;20036;-53
2021/05/19 12:19:27;;;;;;;7.38;0.60;;;19.80;99.90;;;;;;5078870;28;20029;-54
2021/05/19 12:22:05;;;;;;;6.15;0.70;;;19.50;99.90;;;;;;5079601;28;20036;-54
2021/05/19 12:24:35;;;;;;;72.03;2.50;;;20.00;99.90;;;;;;5061380;28;20449;-56
2021/05/19 12:27:01;;;;;;;2.17;0.80;;;20.50;99.90;;;;;;5064520;28;20039;-55
2021/05/19 12:29:44;;;;;;;1.15;0.35;;;20.80;99.90;;;;;;5084730;28;20114;-56
2021/05/19 12:32:33;;;;;;;144.07;11.30;;;20.10;99.90;;;;;;5063091;28;20161;-53
2021/05/19 12:35:13;;;;;;;4.45;1.02;;;20.30;99.90;;;;;;5064330;28;20051;-54
2021/05/19 12:37:48;;;;;;;2.30;0.70;;;20.40;99.90;;;;;;5077606;28;20085;-51
2021/05/19 12:40:22;;;;;;;1.92;0.70;;;20.70;99.90;;;;;;5076841;28;20028;-51
2021/05/19 12:42:54;;;;;;;2.20;0.63;;;20.60;99.90;;;;;;5077630;28;20452;-55
2021/05/19 12:45:41;;;;;;;1.65;0.63;;;20.60;99.90;;;;;;5077742;28;20070;-51
2021/05/19 12:48:15;;;;;;;45.50;2.83;;;20.80;99.90;;;;;;5080318;28;20039;-56
2021/05/19 12:50:48;;;;;;;7.85;1.10;;;19.90;99.90;;;;;;5081214;28;20080;-52
2021/05/19 12:53:54;;;;;;;1.10;0.70;;;19.40;99.90;;;;;;5080000;28;20443;-54
2021/05/19 12:56:23;;;;;;;;;;;19.10;99.90;;;;;;5083038;28;20126;-56
2021/05/19 12:59:06;;;;;;;2.08;0.70;;;18.50;99.90;;;;;;5080299;28;19911;-54